createdAt,value
2023-04-11T00:01:26.277Z,97.50
2023-04-11T00:03:53.208Z,97.50
2023-04-11T00:06:20.330Z,97.40
2023-04-11T00:08:47.990Z,97.20
2023-04-11T00:11:14.924Z,97.40
2023-04-11T00:13:42.863Z,97.10
2023-04-11T00:16:10.132Z,96.90
2023-04-11T00:18:39.400Z,96.80
2023-04-11T00:21:08.297Z,96.60
2023-04-11T00:23:35.033Z,96.20
2023-04-11T00:26:01.822Z,96.00
2023-04-11T00:28:28.658Z,96.10
2023-04-11T00:30:55.590Z,95.80
2023-04-11T00:33:22.347Z,95.80
2023-04-11T00:35:49.218Z,95.70
2023-04-11T00:38:16.667Z,95.70
2023-04-11T00:40:43.769Z,95.70
2023-04-11T00:43:10.628Z,96.00
2023-04-11T00:45:37.943Z,96.10
2023-04-11T00:48:05.140Z,95.90
2023-04-11T00:50:31.917Z,96.10
2023-04-11T00:52:58.921Z,96.40
2023-04-11T00:55:27.062Z,96.70
2023-04-11T00:57:55.098Z,96.80
2023-04-11T01:00:22.508Z,97.00
2023-04-11T01:02:49.856Z,97.10
2023-04-11T01:05:17.505Z,97.40
2023-04-11T01:07:48.504Z,97.80
2023-04-11T01:10:16.330Z,97.80
2023-04-11T01:12:43.995Z,97.70
2023-04-11T01:15:10.743Z,97.70
2023-04-11T01:17:37.789Z,97.80
2023-04-11T01:20:07.760Z,97.70
2023-04-11T01:22:37.242Z,97.50
2023-04-11T01:25:04.868Z,97.30
2023-04-11T01:27:33.982Z,97.60
2023-04-11T01:30:01.808Z,98.00
2023-04-11T01:32:28.524Z,98.50
2023-04-11T01:34:58.071Z,98.50
2023-04-11T01:37:25.564Z,98.50
2023-04-11T01:39:52.376Z,98.50
2023-04-11T01:42:20.947Z,98.50
2023-04-11T01:44:49.687Z,98.50
2023-04-11T01:47:16.395Z,98.50
2023-04-11T01:49:43.411Z,98.50
2023-04-11T01:52:10.522Z,98.50
2023-04-11T01:54:37.238Z,98.50
2023-04-11T01:57:04.316Z,98.50
2023-04-11T01:59:31.010Z,98.50
2023-04-11T02:01:58.104Z,98.50
2023-04-11T02:04:25.050Z,98.50
2023-04-11T02:06:51.810Z,98.50
2023-04-11T02:09:18.463Z,98.50
2023-04-11T02:11:45.296Z,98.50
2023-04-11T02:14:14.282Z,98.50
2023-04-11T02:16:55.034Z,98.50
2023-04-11T02:19:23.402Z,98.50
2023-04-11T02:21:50.105Z,98.50
2023-04-11T02:24:16.839Z,98.50
2023-04-11T02:26:43.540Z,98.50
2023-04-11T02:29:10.370Z,98.50
2023-04-11T02:31:38.784Z,98.50
2023-04-11T02:34:05.491Z,98.50
2023-04-11T02:36:32.158Z,98.50
2023-04-11T02:38:58.818Z,98.50
2023-04-11T02:41:25.754Z,98.50
2023-04-11T02:43:52.361Z,98.50
2023-04-11T02:46:19.089Z,98.50
2023-04-11T02:48:45.788Z,98.50
2023-04-11T02:51:12.874Z,98.50
2023-04-11T02:53:39.550Z,98.50
2023-04-11T02:56:07.763Z,98.50
2023-04-11T02:58:34.622Z,98.50
2023-04-11T03:01:01.858Z,98.50
2023-04-11T03:03:28.569Z,98.50
2023-04-11T03:05:56.978Z,98.50
2023-04-11T03:08:23.723Z,98.20
2023-04-11T03:10:50.585Z,98.50
2023-04-11T03:13:17.352Z,98.50
2023-04-11T03:15:44.210Z,98.50
2023-04-11T03:18:10.937Z,98.40
2023-04-11T03:20:37.611Z,97.30
2023-04-11T03:23:04.269Z,98.50
2023-04-11T03:25:30.951Z,97.50
2023-04-11T03:27:57.616Z,96.00
2023-04-11T03:30:24.294Z,96.20
2023-04-11T03:32:52.915Z,95.40
2023-04-11T03:35:20.763Z,94.90
2023-04-11T03:37:48.012Z,94.30
2023-04-11T03:40:14.760Z,93.80
2023-04-11T03:42:41.413Z,93.90
2023-04-11T03:45:08.829Z,93.00
2023-04-11T03:47:35.560Z,93.50
2023-04-11T03:50:02.220Z,94.90
2023-04-11T03:52:28.862Z,95.50
2023-04-11T03:54:55.507Z,96.30
2023-04-11T03:57:22.281Z,97.50
2023-04-11T03:59:48.929Z,98.10
2023-04-11T04:02:16.046Z,97.90
2023-04-11T04:04:48.698Z,98.30
2023-04-11T04:07:16.929Z,98.00
2023-04-11T04:09:43.900Z,98.50
2023-04-11T04:12:10.558Z,98.50
2023-04-11T04:14:37.210Z,97.60
2023-04-11T04:17:03.910Z,98.10
2023-04-11T04:19:30.763Z,98.20
2023-04-11T04:22:00.207Z,98.20
2023-04-11T04:24:26.984Z,96.70
2023-04-11T04:26:53.845Z,96.10
2023-04-11T04:29:20.483Z,96.00
2023-04-11T04:31:50.624Z,96.80
2023-04-11T04:34:21.828Z,96.60
2023-04-11T04:36:49.297Z,95.80
2023-04-11T04:39:19.185Z,95.40
2023-04-11T04:41:48.530Z,95.70
2023-04-11T04:44:16.497Z,96.00
2023-04-11T04:46:43.722Z,96.30
2023-04-11T04:49:10.531Z,96.70
2023-04-11T04:51:37.359Z,96.90
2023-04-11T04:54:04.923Z,97.50
2023-04-11T04:56:31.888Z,98.10
2023-04-11T04:58:58.676Z,98.10
2023-04-11T05:01:26.806Z,97.80
2023-04-11T05:04:01.106Z,98.10
2023-04-11T05:06:29.486Z,98.50
2023-04-11T05:08:58.995Z,98.20
2023-04-11T05:11:26.699Z,96.90
2023-04-11T05:13:53.377Z,97.40
2023-04-11T05:16:20.632Z,97.90
2023-04-11T05:18:47.487Z,98.50
2023-04-11T05:21:14.904Z,97.20
2023-04-11T05:23:41.983Z,98.00
2023-04-11T05:26:09.494Z,98.00
2023-04-11T05:28:36.415Z,98.10
2023-04-11T05:31:03.440Z,97.60
2023-04-11T05:33:30.942Z,97.00
2023-04-11T05:35:57.679Z,97.60
2023-04-11T05:38:24.431Z,98.50
2023-04-11T05:40:51.152Z,98.50
2023-04-11T05:43:18.070Z,98.50
2023-04-11T05:45:48.382Z,98.50
2023-04-11T05:48:16.198Z,98.50
2023-04-11T05:50:43.232Z,98.50
2023-04-11T05:53:09.919Z,98.50
2023-04-11T05:55:37.355Z,98.50
2023-04-11T05:58:04.777Z,98.50
2023-04-11T06:00:32.345Z,98.50
2023-04-11T06:03:00.401Z,98.50
2023-04-11T06:05:31.273Z,98.50
2023-04-11T06:07:59.829Z,98.50
2023-04-11T06:10:27.491Z,98.50
2023-04-11T06:12:54.671Z,98.50
2023-04-11T06:15:23.042Z,98.50
2023-04-11T06:17:49.926Z,98.50
2023-04-11T06:20:17.118Z,98.50
2023-04-11T06:22:46.260Z,98.50
2023-04-11T06:25:13.211Z,98.50
2023-04-11T06:27:39.893Z,98.50
2023-04-11T06:30:07.496Z,98.50
2023-04-11T06:32:34.201Z,98.50
2023-04-11T06:35:01.354Z,98.50
2023-04-11T06:37:28.365Z,98.50
2023-04-11T06:39:55.237Z,98.50
2023-04-11T06:42:22.008Z,98.50
2023-04-11T06:44:48.716Z,98.50
2023-04-11T06:47:15.540Z,98.50
2023-04-11T06:49:42.302Z,98.50
2023-04-11T06:52:09.226Z,98.50
2023-04-11T06:54:36.132Z,98.50
2023-04-11T06:57:03.410Z,98.50
2023-04-11T06:59:30.188Z,98.50
2023-04-11T07:01:57.645Z,98.50
2023-04-11T07:04:24.606Z,98.50
2023-04-11T07:06:51.357Z,98.50
2023-04-11T07:09:18.112Z,98.50
2023-04-11T07:11:45.158Z,98.50
2023-04-11T07:14:11.839Z,98.50
2023-04-11T07:16:38.926Z,98.50
2023-04-11T07:19:05.890Z,98.50
2023-04-11T07:21:32.636Z,98.50
2023-04-11T07:24:01.001Z,98.50
2023-04-11T07:26:32.599Z,98.50
2023-04-11T07:28:59.816Z,98.50
2023-04-11T07:31:27.377Z,98.50
2023-04-11T07:33:54.514Z,98.50
2023-04-11T07:36:21.600Z,98.50
2023-04-11T07:38:48.312Z,98.50
2023-04-11T07:41:16.320Z,98.50
2023-04-11T07:43:43.289Z,98.50
2023-04-11T07:46:10.222Z,98.50
2023-04-11T07:48:37.015Z,98.50
2023-04-11T07:51:03.862Z,98.50
2023-04-11T07:53:32.793Z,98.50
2023-04-11T07:55:59.780Z,98.50
2023-04-11T07:58:26.434Z,98.50
2023-04-11T08:00:53.706Z,98.50
2023-04-11T08:03:20.937Z,98.50
2023-04-11T08:05:47.916Z,98.50
2023-04-11T08:08:14.819Z,98.50
2023-04-11T08:10:41.496Z,98.50
2023-04-11T08:13:08.439Z,98.50
2023-04-11T08:15:37.177Z,98.50
2023-04-11T08:18:05.124Z,98.50
2023-04-11T08:20:32.104Z,98.50
2023-04-11T08:22:59.540Z,98.50
2023-04-11T08:25:26.488Z,98.50
2023-04-11T08:27:53.277Z,98.50
2023-04-11T08:30:20.688Z,98.50
2023-04-11T08:32:47.646Z,98.50
2023-04-11T08:35:14.382Z,98.50
2023-04-11T08:37:41.541Z,98.50
2023-04-11T08:40:09.148Z,98.50
2023-04-11T08:42:36.340Z,98.50
2023-04-11T08:45:05.942Z,98.50
2023-04-11T08:47:32.703Z,98.50
2023-04-11T08:49:59.426Z,98.50
2023-04-11T08:52:26.241Z,98.50
2023-04-11T08:54:56.880Z,98.50
2023-04-11T08:57:31.291Z,98.50
2023-04-11T09:00:02.122Z,98.50
2023-04-11T09:02:28.878Z,98.50
2023-04-11T09:04:57.661Z,98.50
2023-04-11T09:07:24.543Z,98.50
2023-04-11T09:09:51.246Z,98.50
2023-04-11T09:12:29.239Z,98.50
2023-04-11T09:14:56.367Z,98.50
2023-04-11T09:17:23.303Z,98.50
2023-04-11T09:19:50.061Z,98.50
2023-04-11T09:22:16.723Z,98.50
2023-04-11T09:24:43.382Z,98.50
2023-04-11T09:27:16.905Z,98.50
2023-04-11T09:29:45.760Z,98.50
2023-04-11T09:32:32.918Z,98.50
2023-04-11T09:35:18.684Z,98.50
2023-04-11T09:37:50.888Z,98.50
2023-04-11T09:40:20.201Z,98.50
2023-04-11T09:42:48.428Z,98.50
2023-04-11T09:45:23.575Z,98.50
2023-04-11T09:47:52.881Z,98.50
2023-04-11T09:50:20.754Z,98.50
2023-04-11T09:52:47.523Z,98.50
2023-04-11T09:55:18.292Z,98.50
2023-04-11T09:57:47.419Z,98.50
2023-04-11T10:00:25.070Z,98.50
2023-04-11T10:02:53.613Z,98.50
2023-04-11T10:05:25.990Z,98.50
2023-04-11T10:08:03.491Z,98.50
2023-04-11T10:10:30.406Z,98.50
2023-04-11T10:12:57.557Z,98.50
2023-04-11T10:15:24.342Z,98.50
2023-04-11T10:18:11.827Z,98.50
2023-04-11T10:20:50.399Z,98.50
2023-04-11T10:23:17.427Z,98.50
2023-04-11T10:25:55.447Z,98.50
2023-04-11T10:28:37.810Z,98.50
2023-04-11T10:31:17.328Z,98.50
2023-04-11T10:34:16.141Z,98.50
2023-04-11T10:37:10.406Z,98.50
2023-04-11T10:39:55.416Z,98.50
2023-04-11T10:42:28.903Z,98.50
2023-04-11T10:45:25.053Z,98.50
2023-04-11T10:47:51.740Z,98.50
2023-04-11T10:50:27.385Z,98.50
2023-04-11T10:52:56.104Z,98.50
2023-04-11T10:55:23.868Z,98.50
2023-04-11T10:58:19.835Z,98.50
2023-04-11T11:00:49.670Z,98.50
2023-04-11T11:03:17.834Z,98.50
2023-04-11T11:05:44.889Z,98.50
2023-04-11T11:08:11.871Z,98.50
2023-04-11T11:10:43.496Z,98.50
2023-04-11T11:13:10.826Z,98.50
2023-04-11T11:15:37.950Z,98.50
2023-04-11T11:18:09.931Z,98.50
2023-04-11T11:20:40.086Z,98.50
2023-04-11T11:23:08.924Z,98.50
2023-04-11T11:25:36.225Z,98.50
2023-04-11T11:28:08.211Z,98.50
2023-04-11T11:30:36.699Z,98.50
2023-04-11T11:33:20.070Z,98.50
2023-04-11T11:35:55.792Z,98.50
2023-04-11T11:38:26.681Z,98.50
2023-04-11T11:40:54.500Z,98.50
2023-04-11T11:43:21.439Z,98.50
2023-04-11T11:46:09.244Z,98.50
2023-04-11T11:48:36.649Z,98.40
2023-04-11T11:51:03.835Z,98.50
2023-04-11T11:53:30.652Z,98.50
2023-04-11T11:55:57.813Z,98.50
2023-04-11T11:58:25.654Z,98.50
2023-04-11T12:00:52.908Z,97.40
2023-04-11T12:03:24.905Z,98.50
2023-04-11T12:05:55.202Z,98.50
2023-04-11T12:08:22.279Z,96.70
2023-04-11T12:10:50.505Z,98.20
2023-04-11T12:13:25.518Z,98.30
2023-04-11T12:15:53.325Z,96.70
2023-04-11T12:18:21.925Z,95.80
2023-04-11T12:20:49.110Z,95.60
2023-04-11T12:23:16.115Z,97.60
2023-04-11T12:25:42.829Z,98.20
2023-04-11T12:28:10.587Z,97.20
2023-04-11T12:30:37.831Z,96.80
2023-04-11T12:33:04.924Z,95.60
2023-04-11T12:35:32.217Z,94.50
2023-04-11T12:37:59.094Z,92.70
2023-04-11T12:40:25.955Z,89.60
2023-04-11T12:42:56.433Z,91.20
2023-04-11T12:45:24.682Z,89.20
2023-04-11T12:47:51.633Z,88.30
2023-04-11T12:50:18.510Z,88.90
2023-04-11T12:52:45.409Z,89.30
2023-04-11T12:55:13.542Z,91.20
2023-04-11T12:57:41.458Z,92.00
2023-04-11T13:00:10.522Z,91.90
2023-04-11T13:02:43.017Z,91.80
2023-04-11T13:05:15.338Z,90.40
2023-04-11T13:07:44.823Z,90.00
2023-04-11T13:10:13.429Z,90.40
2023-04-11T13:12:41.647Z,89.00
2023-04-11T13:15:09.667Z,88.40
2023-04-11T13:17:36.449Z,88.10
2023-04-11T13:20:08.690Z,89.50
2023-04-11T13:22:38.760Z,89.30
2023-04-11T13:25:06.974Z,89.80
2023-04-11T13:27:34.493Z,87.40
2023-04-11T13:30:01.418Z,88.40
2023-04-11T13:32:28.207Z,88.50
2023-04-11T13:34:55.462Z,86.50
2023-04-11T13:37:22.271Z,87.50
2023-04-11T13:39:48.928Z,86.80
2023-04-11T13:42:15.563Z,87.20
2023-04-11T13:44:44.037Z,89.20
2023-04-11T13:47:10.838Z,89.00
2023-04-11T13:49:37.435Z,90.30
2023-04-11T13:52:04.147Z,91.30
2023-04-11T13:54:30.933Z,98.40
2023-04-11T13:56:58.962Z,98.50
2023-04-11T13:59:27.462Z,98.50
2023-04-11T14:01:54.337Z,98.50
2023-04-11T14:04:21.686Z,98.50
2023-04-11T14:06:48.514Z,98.50
2023-04-11T14:09:15.231Z,98.50
2023-04-11T14:11:41.924Z,98.50
2023-04-11T14:14:08.578Z,98.50
2023-04-11T14:16:35.351Z,98.50
2023-04-11T14:19:02.476Z,98.50
2023-04-11T14:21:29.178Z,98.50
2023-04-11T14:23:56.323Z,98.50
2023-04-11T14:26:23.209Z,98.50
2023-04-11T14:28:50.121Z,98.50
2023-04-11T14:31:17.010Z,98.50
2023-04-11T14:33:43.746Z,98.50
2023-04-11T14:36:10.442Z,98.50
2023-04-11T14:38:37.097Z,98.50
2023-04-11T14:41:03.952Z,98.50
2023-04-11T14:43:30.721Z,98.50
2023-04-11T14:45:57.905Z,98.50
2023-04-11T14:48:27.010Z,98.50
2023-04-11T14:50:55.470Z,98.50
2023-04-11T14:53:22.961Z,98.50
2023-04-11T14:55:49.724Z,98.50
2023-04-11T14:58:16.996Z,98.50
2023-04-11T15:00:44.169Z,98.50
2023-04-11T15:03:10.933Z,98.50
2023-04-11T15:05:37.737Z,98.50
2023-04-11T15:08:04.579Z,98.50
2023-04-11T15:10:31.340Z,98.50
2023-04-11T15:12:57.992Z,98.50
2023-04-11T15:15:24.673Z,98.50
2023-04-11T15:18:21.576Z,98.50
2023-04-11T15:20:48.695Z,98.50
2023-04-11T15:23:15.388Z,98.50
2023-04-11T15:25:42.178Z,98.50
2023-04-11T15:28:09.490Z,98.50
2023-04-11T15:30:49.152Z,98.50
2023-04-11T15:33:17.167Z,98.50
2023-04-11T15:35:45.416Z,98.50
2023-04-11T15:38:13.562Z,98.50
2023-04-11T15:40:40.450Z,98.50
2023-04-11T15:43:09.213Z,98.50
2023-04-11T15:45:37.352Z,98.50
2023-04-11T15:48:04.414Z,98.50
2023-04-11T15:50:32.009Z,98.50
2023-04-11T15:52:59.186Z,98.50
2023-04-11T15:55:25.881Z,98.50
2023-04-11T15:57:52.664Z,98.50
2023-04-11T16:00:22.345Z,98.50
2023-04-11T16:02:50.204Z,98.50
2023-04-11T16:05:17.508Z,98.50
2023-04-11T16:07:44.352Z,98.50
2023-04-11T16:10:11.154Z,98.50
2023-04-11T16:12:37.989Z,98.50
2023-04-11T16:15:06.707Z,98.50
2023-04-11T16:17:33.720Z,98.50
2023-04-11T16:20:00.597Z,98.50
2023-04-11T16:22:27.308Z,98.50
2023-04-11T16:24:56.124Z,98.50
2023-04-11T16:27:22.905Z,98.50
2023-04-11T16:29:49.774Z,98.50
2023-04-11T16:32:16.654Z,98.50
2023-04-11T16:34:43.292Z,98.50
2023-04-11T16:37:10.085Z,98.50
2023-04-11T16:39:36.775Z,98.50
2023-04-11T16:42:03.449Z,98.50
2023-04-11T16:44:30.329Z,98.50
2023-04-11T16:46:57.078Z,98.50
2023-04-11T16:49:23.695Z,98.50
2023-04-11T16:51:50.421Z,98.50
2023-04-11T16:54:17.077Z,98.50
2023-04-11T16:56:43.724Z,98.50
2023-04-11T16:59:12.222Z,98.50
2023-04-11T17:01:39.183Z,98.50
2023-04-11T17:04:06.620Z,98.50
2023-04-11T17:06:33.542Z,98.50
2023-04-11T17:09:00.277Z,98.50
2023-04-11T17:11:26.885Z,98.50
2023-04-11T17:13:55.450Z,98.50
2023-04-11T17:16:22.491Z,98.50
2023-04-11T17:18:49.232Z,98.50
2023-04-11T17:21:17.205Z,98.50
2023-04-11T17:23:44.327Z,98.50
2023-04-11T17:26:11.864Z,98.50
2023-04-11T17:28:39.844Z,98.50
2023-04-11T17:31:14.023Z,98.50
2023-04-11T17:33:41.489Z,98.50
2023-04-11T17:36:09.323Z,98.50
2023-04-11T17:38:37.368Z,98.50
2023-04-11T17:41:13.556Z,98.50
2023-04-11T17:43:41.394Z,98.50
2023-04-11T17:46:08.927Z,98.50
2023-04-11T17:48:36.300Z,98.50
2023-04-11T17:51:04.396Z,98.50
2023-04-11T17:53:31.229Z,98.50
2023-04-11T17:55:58.231Z,98.50
2023-04-11T17:58:24.996Z,98.50
2023-04-11T18:00:56.111Z,98.50
2023-04-11T18:03:25.429Z,98.50
2023-04-11T18:05:54.040Z,98.50
2023-04-11T18:08:26.017Z,98.50
2023-04-11T18:10:59.893Z,98.50
2023-04-11T18:13:27.462Z,98.50
2023-04-11T18:15:54.561Z,98.50
2023-04-11T18:18:21.551Z,98.50
2023-04-11T18:20:48.396Z,98.50
2023-04-11T18:23:15.088Z,98.50
2023-04-11T18:25:41.762Z,98.50
2023-04-11T18:28:08.491Z,98.50
2023-04-11T18:30:35.181Z,98.50
2023-04-11T18:33:01.881Z,98.50
2023-04-11T18:35:28.714Z,98.50
2023-04-11T18:37:55.903Z,98.50
2023-04-11T18:40:22.847Z,98.50
2023-04-11T18:42:53.241Z,98.50
2023-04-11T18:45:22.399Z,98.50
2023-04-11T18:47:49.728Z,98.50
2023-04-11T18:50:17.988Z,98.50
2023-04-11T18:52:45.602Z,98.50
2023-04-11T18:55:12.788Z,98.50
2023-04-11T18:57:40.141Z,98.50
2023-04-11T19:00:19.256Z,98.50
2023-04-11T19:02:47.578Z,98.50
2023-04-11T19:05:15.355Z,98.50
2023-04-11T19:07:42.857Z,98.50
2023-04-11T19:10:11.219Z,98.50
2023-04-11T19:12:38.605Z,98.50
2023-04-11T19:15:08.303Z,98.50
2023-04-11T19:17:36.580Z,98.50
2023-04-11T19:20:06.962Z,98.50
2023-04-11T19:22:35.366Z,98.50
2023-04-11T19:25:02.157Z,98.50
2023-04-11T19:27:29.086Z,98.50
2023-04-11T19:29:56.877Z,98.50
2023-04-11T19:32:23.572Z,98.50
2023-04-11T19:34:51.395Z,98.50
2023-04-11T19:37:19.340Z,98.50
2023-04-11T19:39:46.103Z,98.50
2023-04-11T19:42:12.766Z,98.50
2023-04-11T19:44:39.934Z,98.50
2023-04-11T19:47:06.640Z,98.50
2023-04-11T19:49:33.295Z,98.50
2023-04-11T19:52:00.063Z,98.50
2023-04-11T19:54:26.691Z,98.50
2023-04-11T19:56:53.639Z,98.50
2023-04-11T19:59:20.545Z,98.50
2023-04-11T20:01:47.441Z,98.50
2023-04-11T20:04:15.797Z,98.50
2023-04-11T20:06:44.409Z,98.50
2023-04-11T20:09:12.647Z,98.50
2023-04-11T20:11:39.826Z,98.50
2023-04-11T20:14:07.220Z,98.50
2023-04-11T20:16:34.043Z,98.50
2023-04-11T20:19:01.643Z,98.50
2023-04-11T20:21:29.374Z,98.50
2023-04-11T20:23:56.226Z,98.50
2023-04-11T20:26:23.255Z,98.50
2023-04-11T20:28:50.598Z,98.50
2023-04-11T20:31:17.442Z,98.50
2023-04-11T20:33:45.318Z,98.50
2023-04-11T20:36:12.124Z,98.50
2023-04-11T20:38:38.802Z,98.50
2023-04-11T20:41:06.384Z,98.50
2023-04-11T20:43:33.021Z,98.50
2023-04-11T20:45:59.727Z,98.50
2023-04-11T20:48:29.526Z,98.50
2023-04-11T20:50:56.291Z,98.50
2023-04-11T20:53:23.021Z,98.50
2023-04-11T20:55:49.878Z,98.50
2023-04-11T20:58:18.634Z,98.50
2023-04-11T21:00:45.708Z,98.50
2023-04-11T21:03:12.581Z,98.50
2023-04-11T21:05:40.060Z,98.50
2023-04-11T21:08:06.729Z,98.50
2023-04-11T21:10:33.411Z,98.50
2023-04-11T21:13:00.203Z,98.50
2023-04-11T21:15:26.897Z,98.50
2023-04-11T21:17:53.688Z,98.50
2023-04-11T21:20:21.091Z,98.50
2023-04-11T21:22:49.825Z,98.50
2023-04-11T21:25:16.597Z,98.50
2023-04-11T21:27:43.591Z,98.50
2023-04-11T21:30:11.255Z,98.50
2023-04-11T21:32:39.201Z,98.50
2023-04-11T21:35:08.131Z,98.50
2023-04-11T21:37:35.819Z,98.50
2023-04-11T21:40:02.803Z,98.50
2023-04-11T21:42:29.777Z,98.50
2023-04-11T21:44:56.450Z,98.50
2023-04-11T21:47:23.205Z,98.50
2023-04-11T21:49:49.942Z,98.50
2023-04-11T21:52:16.656Z,98.50
2023-04-11T21:54:43.919Z,98.50
2023-04-11T21:57:10.936Z,98.50
2023-04-11T21:59:38.758Z,98.50
2023-04-11T22:02:05.891Z,98.50
2023-04-11T22:04:37.246Z,98.50
2023-04-11T22:07:08.283Z,98.50
2023-04-11T22:09:46.965Z,98.50
2023-04-11T22:12:19.885Z,98.50
2023-04-11T22:14:46.668Z,98.50
2023-04-11T22:17:14.551Z,98.50
2023-04-11T22:19:44.424Z,98.50
2023-04-11T22:22:11.531Z,98.50
2023-04-11T22:24:38.361Z,98.50
2023-04-11T22:27:06.242Z,98.50
2023-04-11T22:29:34.501Z,98.50
2023-04-11T22:32:03.812Z,98.50
2023-04-11T22:34:31.030Z,98.50
2023-04-11T22:36:57.748Z,98.50
2023-04-11T22:39:25.449Z,98.50
2023-04-11T22:41:53.387Z,98.50
2023-04-11T22:44:20.798Z,98.50
2023-04-11T22:47:06.178Z,98.50
2023-04-11T22:49:40.159Z,98.50
2023-04-11T22:52:08.121Z,98.50
2023-04-11T22:54:35.315Z,98.50
2023-04-11T22:57:02.102Z,98.50
2023-04-11T22:59:28.858Z,98.50
2023-04-11T23:01:55.901Z,98.50
2023-04-11T23:04:22.832Z,98.50
2023-04-11T23:06:50.487Z,98.50
2023-04-11T23:09:20.834Z,98.50
2023-04-11T23:11:47.903Z,98.50
2023-04-11T23:14:17.933Z,98.50
2023-04-11T23:16:45.241Z,98.50
2023-04-11T23:19:12.203Z,98.50
2023-04-11T23:21:38.855Z,98.50
2023-04-11T23:24:06.913Z,98.50
2023-04-11T23:26:33.931Z,98.50
2023-04-11T23:29:02.518Z,98.50
2023-04-11T23:31:31.495Z,98.50
2023-04-11T23:33:58.512Z,98.50
2023-04-11T23:36:27.373Z,98.50
2023-04-11T23:38:54.323Z,98.50
2023-04-11T23:41:21.107Z,98.50
2023-04-11T23:43:47.775Z,98.50
2023-04-11T23:46:15.219Z,98.50
2023-04-11T23:48:42.358Z,98.50
2023-04-11T23:51:09.067Z,98.50
2023-04-11T23:53:35.741Z,98.50
2023-04-11T23:56:02.557Z,98.50
2023-04-11T23:58:29.500Z,98.50
